Portada
METAR-TAF:

METAR-TAF

Aeroports :

Takamatsu, Japó

latitud: 34-13N, longitud: 134-01E, altitud: 185 m

Observació

L'informe es va fer fa 1 hora i 7 minuts, a les 06:00 UTC
Vent 5 kt del Nord, variant entre Nord-Oest i Nord/Nord-Est
Temperatura 20°C
Humitat 56%
Pressió 1018 hPa
Visibilitat 10 km o més
Escasses núvols a una alçada de 3000 ft

METAR: RJOT 270600Z 35005KT 320V020 9999 FEW030 20/11 Q1018

Hora: 16:07 (07:07 UTC)

Pronòstic

L'informe es va fer fa 2 hores i 1 minuts, a les 05:06 UTC
Pronòstic vàlid del 27 a les 06 UTC al 28 a les 12 UTC
Vent 6 kt del Sud/Sud-Est
Visibilitat 10 km o més
Escasses núvols a una alçada de 3500 ft
Evolucionant progressivament
l' 28 a les 03 UTC al 28 a les 06 UTC
Vent 5 kt del Oest/Sud-Oest

TAF: RJOT 270506Z 2706/2812 15006KT 9999 FEW035 BECMG 2803/2806 24005KT

Observacions i pronòstics meteorològics de més de 4000 aeroports (METAR i TAF).

Les estacions disponibles són els punts grocs i vermells al mapa.

Posi el ratolí al punt desitjat per veure el nom de l'estació.

Feu clic per veure les observacions i els pronòstics meteorològics.

Per canviar el mapa: feu clic els botons verds amb una creu de color negre per apropar; al botó verd amb un guió per allunyar la imatge; o en les fletxes verdes per a mapes adjacents.


METAR-TAF: